Time;durP1;ratioP1;P1;durP2;ratioP2;P2;SDS_P1;SDS_P2;PMS_P1;PMS_P2;Temp;Humidity;BMP_temperature;BMP_pressure;BME280_temperature;BME280_humidity;BME280_pressure;Samples;Min_cycle;Max_cycle;Signal;HPM_P1;HPM_P2
2022/01/23 00:00:07;;;;;;;12.63;6.83;;;-1.60;99.90;;;;;;8475512;27;20198;-64
2022/01/23 00:04:07;;;;;;;9.67;6.13;;;-1.50;99.90;;;;;;8479659;27;20217;-65
2022/01/23 00:08:10;;;;;;;12.57;6.30;;;-1.50;99.90;;;;;;8474958;27;20204;-64
2022/01/23 00:12:17;;;;;;;12.67;6.80;;;-1.40;99.90;;;;;;8465046;27;20244;-65
2022/01/23 00:20:37;;;;;;;14.30;6.30;;;-1.30;99.90;;;;;;8489454;27;20305;-64
2022/01/23 00:33:18;;;;;;;20.03;7.87;;;-1.30;99.90;;;;;;8477768;27;20288;-65
2022/01/23 00:37:19;;;;;;;11.77;7.00;;;-1.20;99.90;;;;;;8475113;27;20182;-64
2022/01/23 00:41:20;;;;;;;15.33;7.33;;;-1.20;99.90;;;;;;8480717;27;20475;-64
2022/01/23 00:49:25;;;;;;;13.23;7.57;;;-1.30;99.90;;;;;;8480972;27;20256;-70
2022/01/23 00:53:26;;;;;;;19.50;7.97;;;-1.20;99.90;;;;;;8473104;27;20244;-66
2022/01/23 00:57:27;;;;;;;15.57;7.67;;;-1.20;99.90;;;;;;8464505;27;20207;-64
2022/01/23 01:01:28;;;;;;;13.00;7.93;;;-1.10;99.90;;;;;;8477013;27;20209;-64
2022/01/23 01:05:29;;;;;;;15.87;7.57;;;-1.10;99.90;;;;;;8475634;27;20184;-65
2022/01/23 01:09:31;;;;;;;15.40;7.40;;;-1.10;99.90;;;;;;8476571;28;20217;-64
2022/01/23 01:13:53;;;;;;;19.00;8.40;;;-1.00;99.90;;;;;;8468895;28;20190;-64
2022/01/23 01:30:41;;;;;;;12.03;7.03;;;-0.80;99.90;;;;;;8470270;28;20225;-65
2022/01/23 01:34:49;;;;;;;16.73;6.97;;;-0.80;99.90;;;;;;8474310;28;20250;-66
2022/01/23 01:38:51;;;;;;;12.90;6.77;;;-0.70;99.90;;;;;;8473741;27;20211;-64
2022/01/23 01:42:53;;;;;;;16.47;7.67;;;-0.70;99.90;;;;;;8460601;28;20195;-65
2022/01/23 01:46:54;;;;;;;11.27;7.50;;;-0.70;99.90;;;;;;8460879;28;20206;-65
2022/01/23 01:50:56;;;;;;;14.50;7.47;;;-0.60;99.90;;;;;;8472615;28;20318;-65
2022/01/23 01:55:03;;;;;;;15.07;8.00;;;-0.60;99.90;;;;;;8484750;28;20662;-65
2022/01/23 01:59:49;;;;;;;15.40;7.73;;;-0.60;99.90;;;;;;8483120;28;20286;-65
2022/01/23 02:12:24;;;;;;;17.77;9.00;;;-0.60;99.90;;;;;;8471353;27;20195;-65
2022/01/23 02:50:51;;;;;;;17.10;8.63;;;-0.80;99.90;;;;;;8491722;27;20212;-66
2022/01/23 02:55:09;;;;;;;14.57;8.30;;;-0.80;99.90;;;;;;8489505;27;20186;-66
2022/01/23 02:59:31;;;;;;;17.90;8.17;;;-0.80;99.90;;;;;;8487091;27;20206;-65
2022/01/23 03:03:37;;;;;;;20.93;9.73;;;-0.70;99.90;;;;;;8463807;27;20189;-65
2022/01/23 03:08:00;;;;;;;14.67;8.57;;;-0.70;99.90;;;;;;8490367;27;20177;-65
2022/01/23 03:24:51;;;;;;;16.03;9.17;;;-0.50;99.90;;;;;;8486810;27;20202;-65
2022/01/23 03:32:58;;;;;;;16.07;9.57;;;-0.40;99.90;;;;;;8477140;27;20187;-66
2022/01/23 03:36:59;;;;;;;18.60;10.10;;;-0.30;99.90;;;;;;8472846;27;20179;-66
2022/01/23 03:41:00;;;;;;;18.07;10.07;;;-0.20;99.90;;;;;;8475777;27;20339;-65
2022/01/23 03:49:33;;;;;;;20.97;10.07;;;-0.10;99.90;;;;;;8483131;27;20262;-66
2022/01/23 03:53:33;;;;;;;19.70;11.40;;;0.00;99.90;;;;;;8488013;27;20225;-67
2022/01/23 03:57:35;;;;;;;16.87;10.67;;;0.00;99.90;;;;;;8474387;27;20196;-66
2022/01/23 04:01:36;;;;;;;17.07;10.07;;;0.10;99.90;;;;;;8464719;27;20179;-66
2022/01/23 04:05:36;;;;;;;19.90;10.10;;;0.10;99.90;;;;;;8485164;27;20258;-66
2022/01/23 04:09:39;;;;;;;19.13;10.47;;;0.20;99.90;;;;;;8483225;27;20206;-66
2022/01/23 04:14:06;;;;;;;16.50;9.63;;;0.20;99.90;;;;;;8480459;27;20183;-66
2022/01/23 04:35:44;;;;;;;17.03;8.83;;;0.40;99.90;;;;;;8484392;27;20197;-67
2022/01/23 05:05:37;;;;;;;16.73;8.10;;;0.60;99.90;;;;;;8483117;27;20187;-67
2022/01/23 05:09:38;;;;;;;16.53;8.70;;;0.60;99.90;;;;;;8481127;27;20202;-67
2022/01/23 05:13:39;;;;;;;15.43;8.33;;;0.60;99.90;;;;;;8478182;28;20614;-67
2022/01/23 05:17:40;;;;;;;18.67;8.83;;;0.60;99.90;;;;;;8468297;28;20210;-67
2022/01/23 05:25:44;;;;;;;19.80;9.27;;;0.60;99.90;;;;;;8486026;27;20195;-67
2022/01/23 05:29:45;;;;;;;20.47;9.33;;;0.60;99.90;;;;;;8473825;28;20288;-68
2022/01/23 05:33:46;;;;;;;15.97;9.33;;;0.70;99.90;;;;;;8473964;28;20175;-68
2022/01/23 05:37:48;;;;;;;16.23;9.67;;;0.70;99.90;;;;;;8487568;27;20246;-67
2022/01/23 05:41:58;;;;;;;16.90;9.30;;;0.70;99.90;;;;;;8468168;27;20186;-68
2022/01/23 05:45:59;;;;;;;15.87;9.57;;;0.70;99.90;;;;;;8470269;27;20267;-67
2022/01/23 05:50:00;;;;;;;18.33;9.73;;;0.80;99.90;;;;;;8489265;27;20207;-68
2022/01/23 05:54:01;;;;;;;21.00;14.23;;;0.80;99.90;;;;;;8482899;27;20186;-67
2022/01/23 05:58:02;;;;;;;17.50;8.97;;;0.80;99.90;;;;;;8485767;27;20194;-67
2022/01/23 06:02:04;;;;;;;16.07;8.40;;;0.80;99.90;;;;;;8470339;27;20202;-68
2022/01/23 06:06:04;;;;;;;17.13;9.03;;;0.80;99.90;;;;;;8480600;27;20183;-68
2022/01/23 06:10:06;;;;;;;17.17;8.57;;;0.90;99.90;;;;;;8490437;27;20282;-68
2022/01/23 06:14:10;;;;;;;21.13;7.87;;;0.80;99.90;;;;;;8488287;27;20195;-66
2022/01/23 06:18:11;;;;;;;13.47;7.17;;;0.90;99.90;;;;;;8483461;27;20207;-66
2022/01/23 06:22:14;;;;;;;16.07;7.50;;;0.90;99.90;;;;;;8478319;27;20270;-67
2022/01/23 06:26:17;;;;;;;11.07;6.83;;;0.90;99.90;;;;;;8481999;27;20180;-67
2022/01/23 06:30:18;;;;;;;15.03;7.90;;;1.00;99.90;;;;;;8480634;27;20214;-67
2022/01/23 06:34:19;;;;;;;17.83;7.43;;;1.00;99.90;;;;;;8464569;27;20178;-67
2022/01/23 06:38:20;;;;;;;11.90;7.17;;;1.00;99.90;;;;;;8483090;27;20189;-67
2022/01/23 06:42:20;;;;;;;15.30;8.07;;;1.00;99.90;;;;;;8491467;27;20179;-67
2022/01/23 06:46:21;;;;;;;15.70;7.17;;;1.00;99.90;;;;;;8480167;27;20270;-66
2022/01/23 06:50:22;;;;;;;19.70;7.17;;;1.00;99.90;;;;;;8476114;27;20207;-67
2022/01/23 06:54:23;;;;;;;15.20;7.90;;;1.10;99.90;;;;;;8480752;27;20210;-67
2022/01/23 06:58:24;;;;;;;14.43;7.30;;;1.10;99.90;;;;;;8479147;27;20361;-67
2022/01/23 07:02:25;;;;;;;14.37;7.20;;;1.10;99.90;;;;;;8478644;27;20248;-70
2022/01/23 07:06:26;;;;;;;17.07;7.33;;;1.20;99.90;;;;;;8476024;27;20176;-67
2022/01/23 07:10:26;;;;;;;17.40;7.47;;;1.20;99.90;;;;;;8487505;27;20210;-67
2022/01/23 07:14:27;;;;;;;19.20;7.57;;;1.30;99.90;;;;;;8477521;27;20244;-67
2022/01/23 07:18:29;;;;;;;17.77;8.10;;;1.30;99.90;;;;;;8469996;27;20211;-67
2022/01/23 07:22:29;;;;;;;17.70;8.80;;;1.40;99.90;;;;;;8466278;27;20182;-67
2022/01/23 07:26:31;;;;;;;22.17;8.87;;;1.40;99.90;;;;;;8487934;27;20186;-66
2022/01/23 07:30:44;;;;;;;24.47;9.30;;;1.40;99.90;;;;;;8473015;27;20211;-66
2022/01/23 07:34:44;;;;;;;20.37;9.37;;;1.40;99.90;;;;;;8469519;27;20407;-67
2022/01/23 07:38:45;;;;;;;19.57;8.67;;;1.50;99.90;;;;;;8488145;27;20220;-67
2022/01/23 07:42:46;;;;;;;24.17;8.70;;;1.50;99.90;;;;;;8480738;27;20230;-67
2022/01/23 07:46:47;;;;;;;23.83;9.67;;;1.50;99.90;;;;;;8481029;27;20241;-66
2022/01/23 07:50:48;;;;;;;18.37;9.07;;;1.60;99.90;;;;;;8476983;27;20206;-66
2022/01/23 07:54:48;;;;;;;23.03;9.43;;;1.60;99.90;;;;;;8487551;27;20185;-66
2022/01/23 07:58:49;;;;;;;21.23;9.10;;;1.60;99.90;;;;;;8476389;27;20214;-67
2022/01/23 08:02:50;;;;;;;22.10;9.10;;;1.60;99.90;;;;;;8465496;27;20180;-66
2022/01/23 08:07:06;;;;;;;18.70;8.47;;;1.60;99.90;;;;;;8469604;27;20187;-66
2022/01/23 08:11:08;;;;;;;24.97;8.77;;;1.70;99.90;;;;;;8462523;27;20207;-67
2022/01/23 08:15:09;;;;;;;16.97;8.10;;;1.70;99.90;;;;;;8469525;27;20179;-66
2022/01/23 08:19:10;;;;;;;17.10;7.40;;;1.80;99.90;;;;;;8462223;27;20180;-67
2022/01/23 08:23:12;;;;;;;16.53;7.03;;;1.80;99.90;;;;;;8466527;27;20175;-67
2022/01/23 08:27:13;;;;;;;18.93;7.47;;;1.90;99.90;;;;;;8480456;27;20266;-67
2022/01/23 08:31:14;;;;;;;14.30;6.53;;;1.90;99.90;;;;;;8478320;27;20203;-67
2022/01/23 08:35:15;;;;;;;14.47;6.63;;;2.00;99.90;;;;;;8461338;27;20183;-67
2022/01/23 08:39:21;;;;;;;13.43;6.07;;;2.10;99.90;;;;;;8462452;27;20200;-67
2022/01/23 08:43:24;;;;;;;11.63;6.50;;;2.10;99.90;;;;;;8478708;27;20293;-66
2022/01/23 08:47:25;;;;;;;18.20;8.37;;;2.20;99.90;;;;;;8467328;27;20206;-67
2022/01/23 08:51:27;;;;;;;16.37;8.50;;;2.20;99.90;;;;;;8487524;27;20206;-66
2022/01/23 08:55:28;;;;;;;17.60;9.50;;;2.20;99.90;;;;;;8485901;27;20175;-67
2022/01/23 08:59:29;;;;;;;23.97;9.10;;;2.30;99.90;;;;;;8481581;27;20202;-67
2022/01/23 09:03:30;;;;;;;22.77;8.90;;;2.30;99.90;;;;;;8474765;27;20185;-67
2022/01/23 09:07:31;;;;;;;21.57;8.53;;;2.40;99.90;;;;;;8478231;27;20179;-67
2022/01/23 09:11:40;;;;;;;23.63;9.17;;;2.40;99.90;;;;;;8476590;27;20203;-67
2022/01/23 09:15:41;;;;;;;21.50;8.40;;;2.40;99.90;;;;;;8468387;27;20191;-67
2022/01/23 09:19:45;;;;;;;22.40;8.53;;;2.40;99.90;;;;;;8490918;27;20172;-68
2022/01/23 09:23:46;;;;;;;20.53;8.63;;;2.50;99.90;;;;;;8494774;27;20316;-67
2022/01/23 09:27:56;;;;;;;23.33;8.77;;;2.50;99.90;;;;;;8485703;27;20236;-67
2022/01/23 09:31:58;;;;;;;23.47;8.87;;;2.50;99.90;;;;;;8486445;27;20184;-66
2022/01/23 09:36:00;;;;;;;24.83;7.60;;;2.60;99.90;;;;;;8481025;27;20173;-67
2022/01/23 09:40:01;;;;;;;19.93;9.30;;;2.70;99.90;;;;;;8493376;27;20243;-67
2022/01/23 09:44:02;;;;;;;19.50;7.60;;;2.80;99.90;;;;;;8472931;27;20207;-68
2022/01/23 09:48:04;;;;;;;20.43;8.13;;;2.90;99.90;;;;;;8490178;27;20405;-66
2022/01/23 09:52:07;;;;;;;21.13;8.03;;;3.00;99.90;;;;;;8486600;27;20179;-67
2022/01/23 09:56:10;;;;;;;16.63;7.73;;;3.00;99.90;;;;;;8478568;27;20590;-66
2022/01/23 10:00:14;;;;;;;16.23;7.60;;;3.10;99.90;;;;;;8488739;27;20203;-67
2022/01/23 10:04:15;;;;;;;13.83;6.80;;;3.20;99.90;;;;;;8469922;27;20178;-68
2022/01/23 10:08:16;;;;;;;17.63;7.10;;;3.40;99.90;;;;;;8487892;27;20194;-67
2022/01/23 10:12:19;;;;;;;13.20;6.70;;;3.50;99.90;;;;;;8497006;27;20260;-67
2022/01/23 10:16:20;;;;;;;13.23;7.00;;;3.50;99.90;;;;;;8487811;27;20194;-67
2022/01/23 10:20:21;;;;;;;10.80;5.90;;;3.60;99.90;;;;;;8492688;27;20185;-66
2022/01/23 10:24:22;;;;;;;12.60;5.97;;;3.60;99.90;;;;;;8467682;27;20262;-67
2022/01/23 10:28:29;;;;;;;9.53;5.50;;;3.70;99.90;;;;;;8475868;27;20203;-66
2022/01/23 10:32:30;;;;;;;9.80;5.33;;;3.80;99.90;;;;;;8472020;27;20498;-67
2022/01/23 10:36:31;;;;;;;8.83;5.70;;;3.90;99.90;;;;;;8471347;27;20253;-66
2022/01/23 10:40:36;;;;;;;8.97;5.27;;;3.80;99.90;;;;;;8460366;27;20178;-66
2022/01/23 10:48:59;;;;;;;8.37;5.23;;;3.90;99.90;;;;;;8468296;27;20225;-68
2022/01/23 10:53:00;;;;;;;6.53;4.53;;;3.80;99.90;;;;;;8457389;28;20225;-67
2022/01/23 10:57:06;;;;;;;7.90;5.50;;;3.80;99.90;;;;;;8476348;27;20267;-67
2022/01/23 11:01:07;;;;;;;7.60;4.80;;;3.90;99.90;;;;;;8483500;27;20251;-66
2022/01/23 11:05:11;;;;;;;8.67;5.23;;;4.00;99.90;;;;;;8488929;27;20190;-67
2022/01/23 11:09:12;;;;;;;8.03;5.50;;;4.10;99.90;;;;;;8481222;27;20202;-66
2022/01/23 11:17:51;;;;;;;8.53;5.50;;;4.20;99.90;;;;;;8479029;27;20211;-67
2022/01/23 11:21:53;;;;;;;8.10;5.30;;;4.30;99.90;;;;;;8479577;27;20414;-67
2022/01/23 11:25:57;;;;;;;8.03;5.70;;;4.30;99.90;;;;;;8487525;27;20183;-68
2022/01/23 11:30:21;;;;;;;8.43;5.50;;;4.40;99.90;;;;;;8482710;27;20216;-68
2022/01/23 11:34:23;;;;;;;9.67;6.83;;;4.40;99.90;;;;;;8482387;27;20179;-67
2022/01/23 11:38:25;;;;;;;8.80;5.87;;;4.30;99.90;;;;;;8468149;27;20255;-68
2022/01/23 11:55:36;;;;;;;7.17;5.40;;;4.40;99.90;;;;;;8475100;27;20187;-67
2022/01/23 11:59:41;;;;;;;8.07;5.23;;;4.30;99.90;;;;;;8471428;27;20233;-66
2022/01/23 12:04:08;;;;;;;5.47;4.50;;;4.30;99.90;;;;;;8479995;27;20179;-67
2022/01/23 12:08:28;;;;;;;5.30;4.20;;;4.40;99.90;;;;;;8477359;27;20248;-67
2022/01/23 12:12:45;;;;;;;6.27;4.13;;;4.50;99.90;;;;;;8486905;27;20190;-67
2022/01/23 12:16:54;;;;;;;6.30;4.60;;;4.50;99.90;;;;;;8473657;27;20203;-67
2022/01/23 12:20:56;;;;;;;5.67;3.77;;;4.50;99.90;;;;;;8487610;27;20183;-67
2022/01/23 12:25:04;;;;;;;5.67;4.23;;;4.50;99.90;;;;;;8458710;27;20183;-66
2022/01/23 12:29:14;;;;;;;5.03;3.83;;;4.40;99.90;;;;;;8453104;28;20562;-71
2022/01/23 12:33:29;;;;;;;5.63;4.20;;;4.30;99.90;;;;;;8463337;27;20195;-67
2022/01/23 12:37:58;;;;;;;6.50;4.50;;;4.30;99.90;;;;;;8471510;27;20372;-67
2022/01/23 12:42:02;;;;;;;10.50;5.87;;;4.40;99.90;;;;;;8484431;27;20192;-67
2022/01/23 12:46:06;;;;;;;7.73;4.63;;;4.50;99.90;;;;;;8478962;27;20207;-67
2022/01/23 12:50:06;;;;;;;6.33;4.43;;;4.50;99.90;;;;;;8486307;27;20238;-67
2022/01/23 12:54:16;;;;;;;7.23;5.17;;;4.60;99.90;;;;;;8485446;27;20183;-67
2022/01/23 12:58:18;;;;;;;5.83;3.97;;;4.60;99.90;;;;;;8477506;27;20285;-67
2022/01/23 13:02:20;;;;;;;5.80;4.43;;;4.60;99.90;;;;;;8474618;27;20187;-67
2022/01/23 13:06:52;;;;;;;8.60;5.27;;;4.60;99.90;;;;;;8486316;27;20197;-68
2022/01/23 13:19:46;;;;;;;8.27;5.10;;;4.60;99.90;;;;;;8479134;27;20183;-67
2022/01/23 13:36:33;;;;;;;6.87;4.20;;;4.50;99.90;;;;;;8476001;28;20184;-68
2022/01/23 13:40:39;;;;;;;5.57;3.67;;;4.60;99.90;;;;;;8454459;28;20176;-67
2022/01/23 13:53:29;;;;;;;6.27;3.97;;;4.70;99.90;;;;;;8452511;28;20186;-68
2022/01/23 13:57:45;;;;;;;4.93;3.40;;;4.60;99.90;;;;;;8469905;27;20237;-67
2022/01/23 14:01:51;;;;;;;5.07;3.50;;;4.60;99.90;;;;;;8473032;27;20187;-67
2022/01/23 14:05:52;;;;;;;4.63;3.27;;;4.70;99.90;;;;;;8475340;27;20179;-68
2022/01/23 14:09:56;;;;;;;3.03;2.40;;;4.80;99.90;;;;;;8486038;27;20286;-67
2022/01/23 14:14:15;;;;;;;3.53;2.70;;;4.70;99.90;;;;;;8483532;27;20175;-67
2022/01/23 14:18:23;;;;;;;2.87;2.23;;;4.70;99.90;;;;;;8463904;27;20200;-67
2022/01/23 14:22:33;;;;;;;3.43;2.30;;;4.90;99.90;;;;;;8466242;27;20175;-67
2022/01/23 14:26:34;;;;;;;3.00;2.67;;;4.90;99.90;;;;;;8492538;27;20182;-67
2022/01/23 14:31:00;;;;;;;3.20;2.40;;;4.80;99.90;;;;;;8482167;27;20209;-67
2022/01/23 14:35:19;;;;;;;3.43;2.60;;;4.80;99.90;;;;;;8455567;27;20219;-67
2022/01/23 14:39:23;;;;;;;4.10;2.73;;;4.70;99.90;;;;;;8484515;27;20179;-67
2022/01/23 14:43:33;;;;;;;4.80;3.27;;;4.60;99.90;;;;;;8481298;27;20187;-67
2022/01/23 14:47:39;;;;;;;3.87;3.10;;;4.50;99.90;;;;;;8473477;27;20183;-67
2022/01/23 14:51:46;;;;;;;3.93;3.17;;;4.40;99.90;;;;;;8473286;27;20192;-67
2022/01/23 14:55:51;;;;;;;5.40;3.70;;;4.30;99.90;;;;;;8466506;27;20505;-67
2022/01/23 14:59:52;;;;;;;9.47;5.10;;;4.20;99.90;;;;;;8479478;27;20365;-66
2022/01/23 15:03:55;;;;;;;10.17;5.73;;;4.10;99.90;;;;;;8467350;27;20207;-66
2022/01/23 15:07:58;;;;;;;17.90;9.63;;;4.10;99.90;;;;;;8486419;27;20210;-67
2022/01/23 15:12:02;;;;;;;18.57;9.37;;;4.00;99.90;;;;;;8483712;27;20210;-66
2022/01/23 15:16:03;;;;;;;12.30;7.10;;;4.00;99.90;;;;;;8474966;27;20230;-66
2022/01/23 15:20:07;;;;;;;9.67;5.47;;;4.00;99.90;;;;;;8489281;27;20186;-67
2022/01/23 15:24:08;;;;;;;14.33;9.63;;;4.00;99.90;;;;;;8473140;27;20461;-67
2022/01/23 15:28:10;;;;;;;9.10;6.03;;;4.00;99.90;;;;;;8480466;27;20264;-67
2022/01/23 15:32:11;;;;;;;6.47;4.10;;;4.00;99.90;;;;;;8480105;27;20203;-66
2022/01/23 15:36:14;;;;;;;6.17;3.60;;;3.90;99.90;;;;;;8472811;27;20265;-66
2022/01/23 15:40:19;;;;;;;4.53;3.10;;;3.90;99.90;;;;;;8475777;27;20295;-66
2022/01/23 15:44:20;;;;;;;4.93;3.70;;;3.80;99.90;;;;;;8489223;27;20179;-66
2022/01/23 15:48:21;;;;;;;9.63;5.50;;;3.80;99.90;;;;;;8485407;27;20209;-66
2022/01/23 15:52:25;;;;;;;21.70;11.77;;;3.70;99.90;;;;;;8464296;27;20235;-66
2022/01/23 15:56:26;;;;;;;11.57;7.10;;;3.70;99.90;;;;;;8472808;27;20179;-67
2022/01/23 16:00:27;;;;;;;17.80;8.90;;;3.70;99.90;;;;;;8470446;27;20207;-65
2022/01/23 16:04:32;;;;;;;9.90;5.97;;;3.60;99.90;;;;;;8482011;27;20182;-65
2022/01/23 16:08:35;;;;;;;7.80;5.03;;;3.60;99.90;;;;;;8479102;27;20352;-65
2022/01/23 16:12:41;;;;;;;7.43;4.87;;;3.50;99.90;;;;;;8479096;27;20175;-65
2022/01/23 16:16:42;;;;;;;8.13;5.37;;;3.50;99.90;;;;;;8486482;27;20247;-65
2022/01/23 16:20:43;;;;;;;8.73;5.90;;;3.50;99.90;;;;;;8484565;27;20175;-65
2022/01/23 16:24:44;;;;;;;9.90;7.53;;;3.50;99.90;;;;;;8481274;27;20189;-65
2022/01/23 16:28:48;;;;;;;11.47;7.70;;;3.60;99.90;;;;;;8479734;27;20202;-65
2022/01/23 16:32:50;;;;;;;11.37;6.53;;;3.60;99.90;;;;;;8471178;27;20176;-65
2022/01/23 16:36:52;;;;;;;13.57;7.40;;;3.50;99.90;;;;;;8474235;27;20190;-65
2022/01/23 16:40:54;;;;;;;13.03;7.43;;;3.50;99.90;;;;;;8476992;27;20195;-65
2022/01/23 16:44:55;;;;;;;15.33;9.27;;;3.50;99.90;;;;;;8469310;27;20183;-65
2022/01/23 16:48:57;;;;;;;15.43;7.97;;;3.50;99.90;;;;;;8479409;27;20215;-65
2022/01/23 16:52:58;;;;;;;11.07;6.60;;;3.50;99.90;;;;;;8483787;27;20266;-65
2022/01/23 16:57:00;;;;;;;9.67;7.20;;;3.50;99.90;;;;;;8485049;27;20271;-65
2022/01/23 17:01:02;;;;;;;11.60;7.70;;;3.40;99.90;;;;;;8475319;27;20190;-65
2022/01/23 17:05:03;;;;;;;20.30;10.57;;;3.40;99.90;;;;;;8468306;27;20196;-64
2022/01/23 17:09:05;;;;;;;12.57;7.50;;;3.40;99.90;;;;;;8475886;27;20210;-65
2022/01/23 17:13:07;;;;;;;14.03;7.83;;;3.40;99.90;;;;;;8476908;27;20175;-65
2022/01/23 17:17:08;;;;;;;11.90;7.60;;;3.40;99.90;;;;;;8476071;27;20202;-65
2022/01/23 17:21:10;;;;;;;10.23;5.47;;;3.30;99.90;;;;;;8486679;27;20187;-65
2022/01/23 17:25:11;;;;;;;8.77;5.47;;;3.30;99.90;;;;;;8476100;28;20183;-64
2022/01/23 17:29:12;;;;;;;9.17;5.27;;;3.30;99.90;;;;;;8480330;27;20260;-65
2022/01/23 17:33:13;;;;;;;9.53;5.57;;;3.30;99.90;;;;;;8461961;28;20252;-64
2022/01/23 17:37:14;;;;;;;10.30;6.13;;;3.30;99.90;;;;;;8484652;27;20225;-65
2022/01/23 17:41:16;;;;;;;20.67;10.03;;;3.30;99.90;;;;;;8480337;27;20199;-65
2022/01/23 17:45:35;;;;;;;23.40;11.60;;;3.30;99.90;;;;;;8484002;27;20197;-65
2022/01/23 17:49:41;;;;;;;18.80;10.03;;;3.30;99.90;;;;;;8473780;27;20203;-65
2022/01/23 17:53:46;;;;;;;27.57;17.07;;;3.30;99.90;;;;;;8476812;27;20188;-64
2022/01/23 17:57:48;;;;;;;23.53;12.70;;;3.30;99.90;;;;;;8476412;27;20206;-65
2022/01/23 18:01:49;;;;;;;14.50;7.97;;;3.30;99.90;;;;;;8481135;27;20189;-65
2022/01/23 18:05:52;;;;;;;10.73;6.57;;;3.40;99.90;;;;;;8485899;27;20207;-65
2022/01/23 18:09:56;;;;;;;8.77;5.90;;;3.40;99.90;;;;;;8489389;27;20195;-65
2022/01/23 18:14:02;;;;;;;9.20;6.23;;;3.40;99.90;;;;;;8479083;27;20171;-65
2022/01/23 18:18:04;;;;;;;7.77;5.20;;;3.40;99.90;;;;;;8483527;27;20462;-65
2022/01/23 18:22:08;;;;;;;9.10;5.23;;;3.40;99.90;;;;;;8473639;27;20205;-64
2022/01/23 18:26:10;;;;;;;6.37;4.17;;;3.40;99.90;;;;;;8491577;27;20526;-65
2022/01/23 18:30:12;;;;;;;7.40;4.57;;;3.40;99.90;;;;;;8473708;27;20219;-65
2022/01/23 18:34:14;;;;;;;8.17;4.23;;;3.30;99.90;;;;;;8465393;27;20188;-65
2022/01/23 18:38:15;;;;;;;7.07;4.40;;;3.30;99.90;;;;;;8463527;27;20184;-65
2022/01/23 18:42:16;;;;;;;6.93;4.37;;;3.40;99.90;;;;;;8473296;27;20188;-65
2022/01/23 18:46:23;;;;;;;6.47;4.30;;;3.30;99.90;;;;;;8471680;27;20213;-64
2022/01/23 18:50:24;;;;;;;6.63;4.93;;;3.30;99.90;;;;;;8483732;27;20214;-65
2022/01/23 18:54:36;;;;;;;8.13;4.20;;;3.30;99.90;;;;;;8466276;27;20186;-66
2022/01/23 18:58:42;;;;;;;9.67;5.83;;;3.30;99.90;;;;;;8490147;27;20313;-65
2022/01/23 19:02:58;;;;;;;9.90;5.90;;;3.30;99.90;;;;;;8481835;27;20486;-65
2022/01/23 19:07:13;;;;;;;10.83;5.73;;;3.20;99.90;;;;;;8485093;27;20176;-65
2022/01/23 19:11:15;;;;;;;7.23;4.20;;;3.10;99.90;;;;;;8487292;27;20222;-66
2022/01/23 19:15:17;;;;;;;5.83;4.03;;;3.10;99.90;;;;;;8475005;27;20212;-64
2022/01/23 19:19:20;;;;;;;6.20;4.03;;;3.10;99.90;;;;;;8463564;27;20182;-65
2022/01/23 19:23:21;;;;;;;5.33;4.23;;;3.20;99.90;;;;;;8454155;28;20222;-64
2022/01/23 19:27:26;;;;;;;7.33;4.27;;;3.20;99.90;;;;;;8465283;27;20211;-64
2022/01/23 19:31:28;;;;;;;7.53;4.13;;;3.20;99.90;;;;;;8479235;27;20297;-64
2022/01/23 19:35:35;;;;;;;6.27;4.37;;;3.20;99.90;;;;;;8487596;27;20191;-65
2022/01/23 19:39:40;;;;;;;6.70;4.00;;;3.20;99.90;;;;;;8459758;27;20203;-65
2022/01/23 19:43:48;;;;;;;5.30;3.30;;;3.20;99.90;;;;;;8472033;27;20271;-64
2022/01/23 19:48:01;;;;;;;5.73;3.40;;;3.20;99.90;;;;;;8477049;27;20203;-63
2022/01/23 19:52:03;;;;;;;4.97;3.07;;;3.10;99.90;;;;;;8475751;27;20210;-64
2022/01/23 19:56:05;;;;;;;4.43;3.03;;;3.10;99.90;;;;;;8488523;27;20288;-64
2022/01/23 20:00:16;;;;;;;5.70;3.73;;;3.10;99.90;;;;;;8475218;27;20290;-70
2022/01/23 20:04:17;;;;;;;7.13;3.83;;;3.10;99.90;;;;;;8479477;27;20199;-65
2022/01/23 20:08:21;;;;;;;5.37;3.47;;;3.10;99.90;;;;;;8470220;27;20187;-65
2022/01/23 20:16:43;;;;;;;4.73;3.00;;;3.10;99.90;;;;;;8477367;27;20279;-65
2022/01/23 20:20:46;;;;;;;4.97;3.00;;;3.10;99.90;;;;;;8487364;27;20183;-65
2022/01/23 20:24:47;;;;;;;9.73;5.30;;;3.10;99.90;;;;;;8487048;27;20186;-65
2022/01/23 20:28:48;;;;;;;8.93;5.30;;;3.10;99.90;;;;;;8482570;27;20203;-65
2022/01/23 20:32:49;;;;;;;7.53;4.10;;;3.10;99.90;;;;;;8461703;27;20184;-65
2022/01/23 20:36:52;;;;;;;5.37;3.43;;;3.10;99.90;;;;;;8473983;27;20202;-65
2022/01/23 20:45:07;;;;;;;5.70;3.17;;;3.00;99.90;;;;;;8477445;27;20187;-66
2022/01/23 20:49:08;;;;;;;5.53;3.07;;;3.00;99.90;;;;;;8478587;27;20250;-65
2022/01/23 20:53:48;;;;;;;4.37;2.83;;;3.00;99.90;;;;;;8486649;27;20175;-65
2022/01/23 20:57:31;;;;;;;4.40;2.93;;;3.00;99.90;;;;;;8484826;27;20205;-65
2022/01/23 21:01:33;;;;;;;4.00;2.73;;;3.00;99.90;;;;;;8476048;27;20194;-65
2022/01/23 21:05:35;;;;;;;4.17;2.83;;;3.00;99.90;;;;;;8475751;27;20193;-65
2022/01/23 21:09:39;;;;;;;4.13;2.90;;;3.00;99.90;;;;;;8486461;27;20268;-65
2022/01/23 21:13:52;;;;;;;3.77;2.50;;;2.90;99.90;;;;;;8486724;27;20194;-65
2022/01/23 21:18:10;;;;;;;3.77;2.40;;;2.90;99.90;;;;;;8464824;27;20194;-72
2022/01/23 21:43:12;;;;;;;4.30;2.53;;;2.90;99.90;;;;;;8462464;27;20190;-65
2022/01/23 21:47:13;;;;;;;3.67;2.83;;;2.90;99.90;;;;;;8468646;27;20295;-65
2022/01/23 21:51:14;;;;;;;4.33;3.17;;;2.90;99.90;;;;;;8451864;28;20216;-65
2022/01/23 21:55:15;;;;;;;2.97;2.40;;;2.90;99.90;;;;;;8458989;28;20178;-65
2022/01/23 21:59:16;;;;;;;3.50;2.37;;;2.90;99.90;;;;;;8475875;28;20290;-65
2022/01/23 22:03:17;;;;;;;4.17;2.57;;;2.80;99.90;;;;;;8458949;28;20191;-65
2022/01/23 22:07:18;;;;;;;3.43;2.77;;;2.80;99.90;;;;;;8469122;28;20191;-65
2022/01/23 22:11:23;;;;;;;3.73;2.50;;;2.80;99.90;;;;;;8461059;28;20211;-65
2022/01/23 22:19:44;;;;;;;4.17;2.87;;;2.80;99.90;;;;;;8478672;27;20598;-65
2022/01/23 22:27:49;;;;;;;3.80;2.47;;;2.80;99.90;;;;;;8470723;27;20203;-65
2022/01/23 22:31:49;;;;;;;3.27;2.33;;;2.80;99.90;;;;;;8476728;27;20215;-65
2022/01/23 22:35:56;;;;;;;5.20;2.50;;;2.80;99.90;;;;;;8471806;27;20187;-65
2022/01/23 22:39:57;;;;;;;2.47;2.20;;;2.80;99.90;;;;;;8486760;27;20502;-65
2022/01/23 22:44:02;;;;;;;3.20;2.40;;;2.70;99.90;;;;;;8476604;27;20284;-65
2022/01/23 22:48:03;;;;;;;4.47;2.63;;;2.70;99.90;;;;;;8462421;27;20187;-65
2022/01/23 22:52:04;;;;;;;3.57;2.80;;;2.70;99.90;;;;;;8480644;27;20215;-64
2022/01/23 22:56:05;;;;;;;3.33;2.40;;;2.70;99.90;;;;;;8469330;27;20183;-65
2022/01/23 23:00:29;;;;;;;5.47;3.00;;;2.70;99.90;;;;;;8475955;27;20203;-65
2022/01/23 23:04:30;;;;;;;4.13;2.77;;;2.70;99.90;;;;;;8467847;27;20195;-65
2022/01/23 23:08:31;;;;;;;4.13;2.67;;;2.70;99.90;;;;;;8479487;27;20214;-65
2022/01/23 23:12:33;;;;;;;3.43;2.27;;;2.70;99.90;;;;;;8473269;27;20196;-65
2022/01/23 23:16:37;;;;;;;3.03;2.33;;;2.70;99.90;;;;;;8473179;27;20262;-65
2022/01/23 23:20:41;;;;;;;4.60;3.00;;;2.70;99.90;;;;;;8487805;27;20194;-65
2022/01/23 23:24:42;;;;;;;4.87;2.80;;;2.70;99.90;;;;;;8487574;27;20183;-65
2022/01/23 23:28:44;;;;;;;5.43;3.50;;;2.70;99.90;;;;;;8483425;27;20203;-65
2022/01/23 23:32:45;;;;;;;5.43;3.53;;;2.70;99.90;;;;;;8472693;27;20191;-65
2022/01/23 23:36:46;;;;;;;7.87;4.43;;;2.70;99.90;;;;;;8481917;27;20190;-66
2022/01/23 23:41:25;;;;;;;6.77;4.27;;;2.70;99.90;;;;;;8483417;27;20243;-65
2022/01/23 23:45:15;;;;;;;4.20;3.00;;;2.70;99.90;;;;;;8473309;27;20192;-65
2022/01/23 23:53:25;;;;;;;5.80;3.93;;;2.70;99.90;;;;;;8454379;28;20183;-65
2022/01/23 23:57:25;;;;;;;6.97;3.90;;;2.70;99.90;;;;;;8475389;27;20227;-65
